sensor_id;sensor_type;location;lat;lon;timestamp;pressure;altitude;pressure_sealevel;temperature;humidity
24280;BME280;12395;42.808;23.408;2022-09-20T00:00:48;94969.78;;;9.97;100.00
24280;BME280;12395;42.808;23.408;2022-09-20T00:03:15;94974.84;;;9.99;98.93
24280;BME280;12395;42.808;23.408;2022-09-20T00:05:42;94989.13;;;9.98;98.32
24280;BME280;12395;42.808;23.408;2022-09-20T00:08:13;94974.63;;;9.81;98.83
24280;BME280;12395;42.808;23.408;2022-09-20T00:10:39;94984.78;;;9.77;99.20
24280;BME280;12395;42.808;23.408;2022-09-20T00:13:06;94988.88;;;9.80;99.49
24280;BME280;12395;42.808;23.408;2022-09-20T00:15:32;94990.09;;;9.84;100.00
24280;BME280;12395;42.808;23.408;2022-09-20T00:17:59;94996.81;;;9.80;99.84
24280;BME280;12395;42.808;23.408;2022-09-20T00:20:25;94975.84;;;9.72;99.01
24280;BME280;12395;42.808;23.408;2022-09-20T00:22:51;94970.13;;;9.68;100.00
24280;BME280;12395;42.808;23.408;2022-09-20T00:25:18;94985.59;;;9.78;100.00
24280;BME280;12395;42.808;23.408;2022-09-20T00:27:43;94979.72;;;9.82;100.00
24280;BME280;12395;42.808;23.408;2022-09-20T00:30:10;94992.16;;;9.95;99.27
24280;BME280;12395;42.808;23.408;2022-09-20T00:32:36;94962.03;;;9.83;98.85
24280;BME280;12395;42.808;23.408;2022-09-20T00:35:01;94983.00;;;9.91;98.19
24280;BME280;12395;42.808;23.408;2022-09-20T00:37:40;94986.88;;;9.95;96.85
24280;BME280;12395;42.808;23.408;2022-09-20T00:40:17;94984.19;;;9.82;97.53
24280;BME280;12395;42.808;23.408;2022-09-20T00:42:45;94960.97;;;9.64;99.78
24280;BME280;12395;42.808;23.408;2022-09-20T00:50:31;94985.13;;;9.48;98.23
24280;BME280;12395;42.808;23.408;2022-09-20T00:53:47;94969.41;;;9.33;98.61
24280;BME280;12395;42.808;23.408;2022-09-20T00:56:09;94968.13;;;9.16;98.92
24280;BME280;12395;42.808;23.408;2022-09-20T00:58:39;94967.69;;;9.06;99.36
24280;BME280;12395;42.808;23.408;2022-09-20T01:01:06;94953.38;;;8.94;99.95
24280;BME280;12395;42.808;23.408;2022-09-20T01:03:34;94964.72;;;8.88;100.00
24280;BME280;12395;42.808;23.408;2022-09-20T01:06:04;94986.28;;;8.92;100.00
24280;BME280;12395;42.808;23.408;2022-09-20T01:08:32;94982.97;;;8.83;100.00
24280;BME280;12395;42.808;23.408;2022-09-20T01:10:59;94981.47;;;8.68;100.00
24280;BME280;12395;42.808;23.408;2022-09-20T01:13:25;94968.97;;;8.48;100.00
24280;BME280;12395;42.808;23.408;2022-09-20T01:15:51;94975.19;;;8.41;100.00
24280;BME280;12395;42.808;23.408;2022-09-20T01:18:18;94983.63;;;8.30;100.00
24280;BME280;12395;42.808;23.408;2022-09-20T01:20:46;94979.28;;;8.22;100.00
24280;BME280;12395;42.808;23.408;2022-09-20T01:29:10;94958.91;;;7.89;100.00
24280;BME280;12395;42.808;23.408;2022-09-20T01:31:49;94967.59;;;7.83;100.00
24280;BME280;12395;42.808;23.408;2022-09-20T01:34:28;94978.56;;;7.86;100.00
24280;BME280;12395;42.808;23.408;2022-09-20T01:39:49;94978.72;;;7.63;100.00
24280;BME280;12395;42.808;23.408;2022-09-20T01:42:17;94970.09;;;7.48;100.00
24280;BME280;12395;42.808;23.408;2022-09-20T01:44:58;94966.75;;;7.40;100.00
24280;BME280;12395;42.808;23.408;2022-09-20T02:06:37;94992.25;;;6.74;100.00
24280;BME280;12395;42.808;23.408;2022-09-20T02:16:50;94979.81;;;6.54;100.00
24280;BME280;12395;42.808;23.408;2022-09-20T02:22:23;94963.94;;;6.47;100.00
24280;BME280;12395;42.808;23.408;2022-09-20T02:25:04;94970.72;;;6.42;100.00
24280;BME280;12395;42.808;23.408;2022-09-20T02:38:19;94953.97;;;6.05;100.00
24280;BME280;12395;42.808;23.408;2022-09-20T02:41:20;94976.13;;;6.11;100.00
24280;BME280;12395;42.808;23.408;2022-09-20T02:49:13;94984.16;;;5.95;100.00
24280;BME280;12395;42.808;23.408;2022-09-20T02:51:50;94972.59;;;5.81;100.00
24280;BME280;12395;42.808;23.408;2022-09-20T02:54:36;94987.53;;;5.81;100.00
24280;BME280;12395;42.808;23.408;2022-09-20T03:00:10;94983.78;;;5.75;100.00
24280;BME280;12395;42.808;23.408;2022-09-20T03:11:15;94975.50;;;5.64;100.00
24280;BME280;12395;42.808;23.408;2022-09-20T03:22:29;94987.63;;;5.42;100.00
24280;BME280;12395;42.808;23.408;2022-09-20T03:27:58;94984.28;;;5.25;100.00
24280;BME280;12395;42.808;23.408;2022-09-20T03:30:59;95004.75;;;5.38;100.00
24280;BME280;12395;42.808;23.408;2022-09-20T03:40:02;95018.06;;;5.36;100.00
24280;BME280;12395;42.808;23.408;2022-09-20T03:42:17;95007.81;;;5.19;100.00
24280;BME280;12395;42.808;23.408;2022-09-20T04:03:21;95019.69;;;4.99;100.00
24280;BME280;12395;42.808;23.408;2022-09-20T04:06:06;95013.66;;;4.98;100.00
24280;BME280;12395;42.808;23.408;2022-09-20T04:19:40;95041.09;;;4.80;100.00
24280;BME280;12395;42.808;23.408;2022-09-20T04:22:09;95022.09;;;4.69;100.00
24280;BME280;12395;42.808;23.408;2022-09-20T04:24:49;95025.69;;;4.77;100.00
24280;BME280;12395;42.808;23.408;2022-09-20T04:27:35;95039.63;;;4.77;100.00
24280;BME280;12395;42.808;23.408;2022-09-20T04:32:39;95043.56;;;4.81;100.00
24280;BME280;12395;42.808;23.408;2022-09-20T04:38:38;95039.63;;;4.85;100.00
24280;BME280;12395;42.808;23.408;2022-09-20T04:41:17;95052.06;;;4.91;100.00
24280;BME280;12395;42.808;23.408;2022-09-20T04:57:52;95041.84;;;5.04;100.00
24280;BME280;12395;42.808;23.408;2022-09-20T05:20:01;95064.69;;;5.65;100.00
24280;BME280;12395;42.808;23.408;2022-09-20T05:30:36;95063.97;;;6.02;100.00
24280;BME280;12395;42.808;23.408;2022-09-20T05:33:19;95042.03;;;6.09;100.00
24280;BME280;12395;42.808;23.408;2022-09-20T05:36:04;95062.06;;;6.33;100.00
24280;BME280;12395;42.808;23.408;2022-09-20T05:52:37;95076.47;;;7.12;100.00
24280;BME280;12395;42.808;23.408;2022-09-20T05:55:23;95077.00;;;7.22;100.00
24280;BME280;12395;42.808;23.408;2022-09-20T05:58:30;95068.34;;;7.28;100.00
24280;BME280;12395;42.808;23.408;2022-09-20T06:03:38;95069.69;;;7.38;100.00
24280;BME280;12395;42.808;23.408;2022-09-20T06:11:47;95088.75;;;7.69;100.00
24280;BME280;12395;42.808;23.408;2022-09-20T06:22:35;95083.16;;;8.15;100.00
24280;BME280;12395;42.808;23.408;2022-09-20T06:27:41;95093.13;;;8.34;100.00
24280;BME280;12395;42.808;23.408;2022-09-20T06:30:18;95099.66;;;8.38;100.00
24280;BME280;12395;42.808;23.408;2022-09-20T06:32:59;95089.59;;;8.48;99.68
24280;BME280;12395;42.808;23.408;2022-09-20T06:35:34;95091.09;;;8.57;99.37
24280;BME280;12395;42.808;23.408;2022-09-20T06:41:00;95081.66;;;8.69;98.16
24280;BME280;12395;42.808;23.408;2022-09-20T06:43:45;95080.88;;;8.75;98.41
24280;BME280;12395;42.808;23.408;2022-09-20T06:46:12;95078.06;;;8.77;96.79
24280;BME280;12395;42.808;23.408;2022-09-20T06:48:40;95093.41;;;8.94;96.16
24280;BME280;12395;42.808;23.408;2022-09-20T06:51:06;95086.34;;;9.01;96.26
24280;BME280;12395;42.808;23.408;2022-09-20T06:53:36;95095.16;;;9.08;96.11
24280;BME280;12395;42.808;23.408;2022-09-20T06:56:04;95077.44;;;9.09;95.96
24280;BME280;12395;42.808;23.408;2022-09-20T06:58:29;95079.50;;;9.13;94.41
24280;BME280;12395;42.808;23.408;2022-09-20T07:00:55;95085.09;;;9.25;94.90
24280;BME280;12395;42.808;23.408;2022-09-20T07:03:20;95091.91;;;9.41;95.30
24280;BME280;12395;42.808;23.408;2022-09-20T07:05:46;95079.91;;;9.45;93.89
24280;BME280;12395;42.808;23.408;2022-09-20T07:08:11;95089.91;;;9.49;93.53
24280;BME280;12395;42.808;23.408;2022-09-20T07:10:37;95085.44;;;9.56;92.96
24280;BME280;12395;42.808;23.408;2022-09-20T07:13:03;95113.50;;;9.98;93.74
24280;BME280;12395;42.808;23.408;2022-09-20T07:15:33;95117.72;;;10.40;92.07
24280;BME280;12395;42.808;23.408;2022-09-20T07:17:59;95110.44;;;10.61;87.00
24280;BME280;12395;42.808;23.408;2022-09-20T07:20:25;95117.19;;;11.10;88.06
24280;BME280;12395;42.808;23.408;2022-09-20T07:22:50;95125.28;;;11.41;84.01
24280;BME280;12395;42.808;23.408;2022-09-20T07:25:18;95118.91;;;11.75;81.54
24280;BME280;12395;42.808;23.408;2022-09-20T07:27:45;95122.31;;;12.01;80.21
24280;BME280;12395;42.808;23.408;2022-09-20T07:30:12;95107.69;;;12.17;78.31
24280;BME280;12395;42.808;23.408;2022-09-20T07:32:39;95113.94;;;12.42;77.45
24280;BME280;12395;42.808;23.408;2022-09-20T07:35:09;95099.78;;;12.48;76.75
24280;BME280;12395;42.808;23.408;2022-09-20T07:37:35;95113.66;;;12.81;77.43
24280;BME280;12395;42.808;23.408;2022-09-20T07:40:02;95107.78;;;13.04;73.93
24280;BME280;12395;42.808;23.408;2022-09-20T07:42:29;95116.34;;;13.31;73.59
24280;BME280;12395;42.808;23.408;2022-09-20T07:44:54;95109.06;;;13.44;70.75
24280;BME280;12395;42.808;23.408;2022-09-20T07:47:20;95086.06;;;13.50;70.95
24280;BME280;12395;42.808;23.408;2022-09-20T07:49:46;95106.88;;;13.59;66.37
24280;BME280;12395;42.808;23.408;2022-09-20T07:52:11;95100.41;;;13.67;66.83
24280;BME280;12395;42.808;23.408;2022-09-20T07:54:57;95085.03;;;13.69;68.13
24280;BME280;12395;42.808;23.408;2022-09-20T07:57:23;95083.88;;;13.83;67.20
24280;BME280;12395;42.808;23.408;2022-09-20T07:59:48;95073.72;;;13.91;68.89
24280;BME280;12395;42.808;23.408;2022-09-20T08:02:15;95099.38;;;13.86;63.73
24280;BME280;12395;42.808;23.408;2022-09-20T08:04:41;95088.47;;;13.94;64.88
24280;BME280;12395;42.808;23.408;2022-09-20T08:07:07;95080.91;;;14.09;63.95
24280;BME280;12395;42.808;23.408;2022-09-20T08:09:32;95099.59;;;14.21;64.91
24280;BME280;12395;42.808;23.408;2022-09-20T08:11:58;95091.72;;;14.44;64.57
24280;BME280;12395;42.808;23.408;2022-09-20T08:14:23;95090.31;;;14.71;63.95
24280;BME280;12395;42.808;23.408;2022-09-20T08:16:49;95098.13;;;14.96;62.38
24280;BME280;12395;42.808;23.408;2022-09-20T08:19:20;95091.75;;;15.08;59.57
24280;BME280;12395;42.808;23.408;2022-09-20T08:21:47;95090.16;;;15.07;59.88
24280;BME280;12395;42.808;23.408;2022-09-20T08:24:14;95100.56;;;14.97;58.56
24280;BME280;12395;42.808;23.408;2022-09-20T08:26:41;95107.28;;;14.88;58.44
24280;BME280;12395;42.808;23.408;2022-09-20T08:29:08;95109.69;;;14.78;59.08
24280;BME280;12395;42.808;23.408;2022-09-20T08:31:36;95095.66;;;14.71;58.69
24280;BME280;12395;42.808;23.408;2022-09-20T08:34:04;95101.28;;;14.63;59.37
24280;BME280;12395;42.808;23.408;2022-09-20T08:36:31;95084.44;;;14.51;58.95
24280;BME280;12395;42.808;23.408;2022-09-20T08:38:57;95096.69;;;14.70;59.86
24280;BME280;12395;42.808;23.408;2022-09-20T08:41:26;95092.00;;;15.07;58.88
24280;BME280;12395;42.808;23.408;2022-09-20T08:46:26;95078.69;;;15.65;57.69
24280;BME280;12395;42.808;23.408;2022-09-20T08:48:54;95081.78;;;15.85;56.28
24280;BME280;12395;42.808;23.408;2022-09-20T08:51:20;95070.63;;;15.88;54.27
24280;BME280;12395;42.808;23.408;2022-09-20T08:53:52;95076.69;;;15.95;55.09
24280;BME280;12395;42.808;23.408;2022-09-20T08:56:19;95088.78;;;15.86;54.08
24280;BME280;12395;42.808;23.408;2022-09-20T08:58:45;95062.69;;;15.53;53.64
24280;BME280;12395;42.808;23.408;2022-09-20T09:01:22;95084.63;;;15.67;54.96
24280;BME280;12395;42.808;23.408;2022-09-20T09:04:09;95080.75;;;15.74;54.25
24280;BME280;12395;42.808;23.408;2022-09-20T09:06:35;95053.53;;;15.89;54.17
24280;BME280;12395;42.808;23.408;2022-09-20T09:09:01;95052.84;;;15.93;53.52
24280;BME280;12395;42.808;23.408;2022-09-20T09:11:26;95053.00;;;16.15;51.63
24280;BME280;12395;42.808;23.408;2022-09-20T09:14:02;95061.56;;;16.29;51.90
24280;BME280;12395;42.808;23.408;2022-09-20T09:16:31;95050.13;;;16.16;51.79
24280;BME280;12395;42.808;23.408;2022-09-20T09:19:27;95047.41;;;15.88;53.29
24280;BME280;12395;42.808;23.408;2022-09-20T09:22:02;95044.91;;;15.59;52.53
24280;BME280;12395;42.808;23.408;2022-09-20T09:24:29;95055.34;;;15.49;54.21
24280;BME280;12395;42.808;23.408;2022-09-20T09:27:15;95048.66;;;15.46;52.85
24280;BME280;12395;42.808;23.408;2022-09-20T09:29:52;95047.09;;;15.62;52.28
24280;BME280;12395;42.808;23.408;2022-09-20T09:32:24;95047.06;;;15.85;51.68
24280;BME280;12395;42.808;23.408;2022-09-20T09:34:52;95036.03;;;15.93;50.46
24280;BME280;12395;42.808;23.408;2022-09-20T09:37:29;95030.78;;;16.26;51.72
24280;BME280;12395;42.808;23.408;2022-09-20T09:40:28;94992.59;;;16.42;51.38
24280;BME280;12395;42.808;23.408;2022-09-20T09:43:00;95032.91;;;16.85;49.56
24280;BME280;12395;42.808;23.408;2022-09-20T09:45:32;95018.91;;;16.78;49.67
24280;BME280;12395;42.808;23.408;2022-09-20T09:48:01;95032.53;;;16.93;49.57
24280;BME280;12395;42.808;23.408;2022-09-20T09:50:31;95021.25;;;16.91;49.77
24280;BME280;12395;42.808;23.408;2022-09-20T09:53:27;95025.38;;;16.66;48.64
24280;BME280;12395;42.808;23.408;2022-09-20T09:56:02;95017.25;;;16.33;48.57
24280;BME280;12395;42.808;23.408;2022-09-20T10:02:01;95018.41;;;16.81;50.74
24280;BME280;12395;42.808;23.408;2022-09-20T10:10:11;95014.50;;;17.22;48.11
24280;BME280;12395;42.808;23.408;2022-09-20T10:15:54;95016.75;;;17.47;45.56
24280;BME280;12395;42.808;23.408;2022-09-20T10:18:33;95014.53;;;17.06;45.71
24280;BME280;12395;42.808;23.408;2022-09-20T10:21:17;95014.34;;;16.79;46.70
24280;BME280;12395;42.808;23.408;2022-09-20T10:24:19;94993.19;;;16.33;48.51
24280;BME280;12395;42.808;23.408;2022-09-20T10:27:11;95006.75;;;16.14;49.11
24280;BME280;12395;42.808;23.408;2022-09-20T10:32:32;94981.91;;;15.86;48.42
24280;BME280;12395;42.808;23.408;2022-09-20T10:35:22;95005.19;;;16.02;50.59
24280;BME280;12395;42.808;23.408;2022-09-20T10:46:36;94991.59;;;16.93;46.30
24280;BME280;12395;42.808;23.408;2022-09-20T11:00:23;94989.94;;;17.85;46.66
24280;BME280;12395;42.808;23.408;2022-09-20T11:08:16;94986.34;;;17.75;43.21
24280;BME280;12395;42.808;23.408;2022-09-20T11:13:32;94987.41;;;17.19;43.45
24280;BME280;12395;42.808;23.408;2022-09-20T11:16:17;94979.81;;;17.11;44.56
24280;BME280;12395;42.808;23.408;2022-09-20T11:18:56;94978.09;;;17.05;44.45
24280;BME280;12395;42.808;23.408;2022-09-20T11:27:11;94959.34;;;17.21;43.69
24280;BME280;12395;42.808;23.408;2022-09-20T11:32:33;94958.22;;;17.39;43.50
24280;BME280;12395;42.808;23.408;2022-09-20T11:37:38;94962.31;;;16.86;45.99
24280;BME280;12395;42.808;23.408;2022-09-20T11:40:25;94963.91;;;16.54;47.06
24280;BME280;12395;42.808;23.408;2022-09-20T11:42:55;94920.44;;;16.14;48.37
24280;BME280;12395;42.808;23.408;2022-09-20T11:45:22;94934.47;;;16.38;45.92
24280;BME280;12395;42.808;23.408;2022-09-20T11:47:58;94947.22;;;16.64;46.29
24280;BME280;12395;42.808;23.408;2022-09-20T11:56:13;94945.66;;;17.39;44.35
24280;BME280;12395;42.808;23.408;2022-09-20T11:58:56;94949.41;;;17.60;43.88
24280;BME280;12395;42.808;23.408;2022-09-20T12:01:30;94947.50;;;17.39;44.28
24280;BME280;12395;42.808;23.408;2022-09-20T12:04:30;94945.81;;;17.71;41.91
24280;BME280;12395;42.808;23.408;2022-09-20T12:07:13;94927.69;;;17.56;42.53
24280;BME280;12395;42.808;23.408;2022-09-20T12:09:53;94942.59;;;17.31;43.19
24280;BME280;12395;42.808;23.408;2022-09-20T12:12:38;94955.47;;;17.12;44.73
24280;BME280;12395;42.808;23.408;2022-09-20T12:15:29;94934.06;;;16.95;45.71
24280;BME280;12395;42.808;23.408;2022-09-20T12:26:39;94937.16;;;17.64;44.45
24280;BME280;12395;42.808;23.408;2022-09-20T12:29:07;94928.88;;;17.65;43.38
24280;BME280;12395;42.808;23.408;2022-09-20T12:31:49;94932.09;;;17.67;44.54
24280;BME280;12395;42.808;23.408;2022-09-20T12:39:20;94932.38;;;17.66;46.25
24280;BME280;12395;42.808;23.408;2022-09-20T12:41:50;94935.16;;;17.76;44.41
24280;BME280;12395;42.808;23.408;2022-09-20T13:00:51;94920.44;;;17.79;42.72
24280;BME280;12395;42.808;23.408;2022-09-20T13:03:45;94922.41;;;17.88;43.03
24280;BME280;12395;42.808;23.408;2022-09-20T13:09:04;94903.44;;;17.68;41.13
24280;BME280;12395;42.808;23.408;2022-09-20T13:11:53;94928.13;;;17.70;41.72
24280;BME280;12395;42.808;23.408;2022-09-20T13:14:29;94918.63;;;17.62;41.66
24280;BME280;12395;42.808;23.408;2022-09-20T13:17:03;94924.72;;;17.80;41.45
24280;BME280;12395;42.808;23.408;2022-09-20T13:19:41;94892.66;;;17.63;41.39
24280;BME280;12395;42.808;23.408;2022-09-20T13:24:40;94908.34;;;17.76;41.29
24280;BME280;12395;42.808;23.408;2022-09-20T13:27:30;94913.72;;;17.76;42.37
24280;BME280;12395;42.808;23.408;2022-09-20T13:30:28;94911.34;;;17.58;41.02
24280;BME280;12395;42.808;23.408;2022-09-20T13:33:13;94899.09;;;17.62;42.50
24280;BME280;12395;42.808;23.408;2022-09-20T13:35:39;94906.91;;;17.68;42.20
24280;BME280;12395;42.808;23.408;2022-09-20T13:38:07;94908.25;;;17.49;42.26
24280;BME280;12395;42.808;23.408;2022-09-20T13:40:38;94902.97;;;17.33;42.97
24280;BME280;12395;42.808;23.408;2022-09-20T13:43:27;94908.22;;;17.44;44.28
24280;BME280;12395;42.808;23.408;2022-09-20T13:46:14;94901.78;;;17.62;42.62
24280;BME280;12395;42.808;23.408;2022-09-20T13:48:41;94894.72;;;17.56;43.22
24280;BME280;12395;42.808;23.408;2022-09-20T13:51:27;94900.97;;;17.61;42.13
24280;BME280;12395;42.808;23.408;2022-09-20T13:53:52;94905.03;;;17.26;42.38
24280;BME280;12395;42.808;23.408;2022-09-20T13:56:27;94915.72;;;17.04;42.37
24280;BME280;12395;42.808;23.408;2022-09-20T13:58:54;94911.50;;;16.91;43.42
24280;BME280;12395;42.808;23.408;2022-09-20T14:01:32;94914.84;;;16.98;42.24
24280;BME280;12395;42.808;23.408;2022-09-20T14:04:13;94914.19;;;16.91;43.45
24280;BME280;12395;42.808;23.408;2022-09-20T14:06:40;94920.38;;;16.75;42.21
24280;BME280;12395;42.808;23.408;2022-09-20T14:09:08;94906.53;;;16.62;40.33
24280;BME280;12395;42.808;23.408;2022-09-20T14:11:43;94905.38;;;16.58;42.10
24280;BME280;12395;42.808;23.408;2022-09-20T14:14:11;94903.19;;;16.71;42.65
24280;BME280;12395;42.808;23.408;2022-09-20T14:16:40;94898.19;;;16.58;41.34
24280;BME280;12395;42.808;23.408;2022-09-20T14:19:12;94895.50;;;16.58;40.89
24280;BME280;12395;42.808;23.408;2022-09-20T14:21:40;94889.75;;;16.66;41.15
24280;BME280;12395;42.808;23.408;2022-09-20T14:27:17;94892.41;;;16.66;42.43
24280;BME280;12395;42.808;23.408;2022-09-20T14:29:47;94907.16;;;16.85;43.27
24280;BME280;12395;42.808;23.408;2022-09-20T14:34:43;94907.31;;;16.95;43.16
24280;BME280;12395;42.808;23.408;2022-09-20T14:37:21;94907.63;;;16.99;42.97
24280;BME280;12395;42.808;23.408;2022-09-20T14:39:49;94914.84;;;16.98;43.00
24280;BME280;12395;42.808;23.408;2022-09-20T14:42:41;94915.25;;;16.90;42.72
24280;BME280;12395;42.808;23.408;2022-09-20T14:45:20;94907.88;;;16.81;42.16
24280;BME280;12395;42.808;23.408;2022-09-20T14:50:42;94923.06;;;16.75;44.21
24280;BME280;12395;42.808;23.408;2022-09-20T14:58:31;94909.44;;;16.60;46.34
24280;BME280;12395;42.808;23.408;2022-09-20T15:01:04;94913.81;;;16.66;46.56
24280;BME280;12395;42.808;23.408;2022-09-20T15:03:40;94911.28;;;16.43;46.19
24280;BME280;12395;42.808;23.408;2022-09-20T15:06:10;94911.03;;;16.11;45.97
24280;BME280;12395;42.808;23.408;2022-09-20T15:08:37;94914.13;;;16.20;46.88
24280;BME280;12395;42.808;23.408;2022-09-20T15:11:03;94925.63;;;16.20;46.83
24280;BME280;12395;42.808;23.408;2022-09-20T15:13:28;94910.03;;;16.01;47.16
24280;BME280;12395;42.808;23.408;2022-09-20T15:15:54;94922.81;;;15.99;47.02
24280;BME280;12395;42.808;23.408;2022-09-20T15:18:24;94935.63;;;15.97;47.24
24280;BME280;12395;42.808;23.408;2022-09-20T15:20:54;94930.06;;;15.87;46.17
24280;BME280;12395;42.808;23.408;2022-09-20T15:23:20;94926.78;;;15.68;47.34
24280;BME280;12395;42.808;23.408;2022-09-20T15:25:49;94937.41;;;15.52;47.09
24280;BME280;12395;42.808;23.408;2022-09-20T15:28:16;94930.69;;;15.37;46.86
24280;BME280;12395;42.808;23.408;2022-09-20T15:30:46;94923.16;;;15.23;47.36
24280;BME280;12395;42.808;23.408;2022-09-20T15:33:12;94910.19;;;15.15;48.69
24280;BME280;12395;42.808;23.408;2022-09-20T15:35:39;94908.56;;;15.14;49.87
24280;BME280;12395;42.808;23.408;2022-09-20T15:38:04;94906.38;;;14.99;49.89
24280;BME280;12395;42.808;23.408;2022-09-20T15:40:42;94917.16;;;14.93;49.48
24280;BME280;12395;42.808;23.408;2022-09-20T15:43:13;94929.94;;;14.91;49.76
24280;BME280;12395;42.808;23.408;2022-09-20T15:45:57;94921.94;;;14.79;48.34
24280;BME280;12395;42.808;23.408;2022-09-20T15:48:29;94922.63;;;14.63;48.26
24280;BME280;12395;42.808;23.408;2022-09-20T15:51:06;94916.72;;;14.61;49.00
24280;BME280;12395;42.808;23.408;2022-09-20T15:53:35;94924.63;;;14.56;49.29
24280;BME280;12395;42.808;23.408;2022-09-20T15:56:03;94916.56;;;14.33;49.86
24280;BME280;12395;42.808;23.408;2022-09-20T15:58:31;94914.00;;;14.26;50.52
24280;BME280;12395;42.808;23.408;2022-09-20T16:01:04;94920.47;;;14.19;51.53
24280;BME280;12395;42.808;23.408;2022-09-20T16:03:31;94921.72;;;14.05;52.52
24280;BME280;12395;42.808;23.408;2022-09-20T16:06:01;94927.81;;;13.93;53.31
24280;BME280;12395;42.808;23.408;2022-09-20T16:08:35;94927.09;;;13.86;52.60
24280;BME280;12395;42.808;23.408;2022-09-20T16:11:01;94924.00;;;13.89;54.91
24280;BME280;12395;42.808;23.408;2022-09-20T16:13:27;94915.94;;;13.66;53.12
24280;BME280;12395;42.808;23.408;2022-09-20T16:15:57;94924.50;;;13.68;52.67
24280;BME280;12395;42.808;23.408;2022-09-20T16:18:23;94932.78;;;13.60;53.29
24280;BME280;12395;42.808;23.408;2022-09-20T16:21:09;94935.41;;;13.49;54.13
24280;BME280;12395;42.808;23.408;2022-09-20T16:23:38;94938.72;;;13.44;54.34
24280;BME280;12395;42.808;23.408;2022-09-20T16:26:05;94930.81;;;13.38;54.68
24280;BME280;12395;42.808;23.408;2022-09-20T16:28:31;94933.22;;;13.28;55.54
24280;BME280;12395;42.808;23.408;2022-09-20T16:30:58;94938.03;;;13.19;55.88
24280;BME280;12395;42.808;23.408;2022-09-20T16:33:24;94935.03;;;13.09;57.06
24280;BME280;12395;42.808;23.408;2022-09-20T16:35:50;94942.75;;;12.92;58.54
24280;BME280;12395;42.808;23.408;2022-09-20T16:38:16;94929.31;;;12.69;59.56
24280;BME280;12395;42.808;23.408;2022-09-20T16:40:42;94936.31;;;12.64;61.96
24280;BME280;12395;42.808;23.408;2022-09-20T16:43:08;94935.69;;;12.44;62.32
24280;BME280;12395;42.808;23.408;2022-09-20T16:45:34;94942.13;;;12.29;63.61
24280;BME280;12395;42.808;23.408;2022-09-20T16:47:59;94936.97;;;12.10;66.05
24280;BME280;12395;42.808;23.408;2022-09-20T16:50:28;94922.09;;;11.78;66.13
24280;BME280;12395;42.808;23.408;2022-09-20T16:52:54;94945.56;;;11.74;67.37
24280;BME280;12395;42.808;23.408;2022-09-20T16:55:20;94943.41;;;11.51;67.99
24280;BME280;12395;42.808;23.408;2022-09-20T16:57:49;94948.16;;;11.43;67.13
24280;BME280;12395;42.808;23.408;2022-09-20T17:00:15;94950.66;;;11.31;65.43
24280;BME280;12395;42.808;23.408;2022-09-20T17:02:47;94943.75;;;11.24;67.12
24280;BME280;12395;42.808;23.408;2022-09-20T17:05:14;94957.66;;;11.13;68.49
24280;BME280;12395;42.808;23.408;2022-09-20T17:07:40;94946.31;;;10.93;68.29
24280;BME280;12395;42.808;23.408;2022-09-20T17:10:09;94956.34;;;10.84;67.07
24280;BME280;12395;42.808;23.408;2022-09-20T17:12:34;94951.06;;;10.71;66.30
24280;BME280;12395;42.808;23.408;2022-09-20T17:15:08;94949.25;;;10.58;67.70
24280;BME280;12395;42.808;23.408;2022-09-20T17:17:37;94965.16;;;10.52;67.46
24280;BME280;12395;42.808;23.408;2022-09-20T17:20:03;94960.47;;;10.41;69.02
24280;BME280;12395;42.808;23.408;2022-09-20T17:22:30;94951.31;;;10.30;69.26
24280;BME280;12395;42.808;23.408;2022-09-20T17:24:55;94951.50;;;10.16;68.76
24280;BME280;12395;42.808;23.408;2022-09-20T17:27:21;94958.19;;;10.05;72.47
24280;BME280;12395;42.808;23.408;2022-09-20T17:29:48;94967.34;;;9.96;72.17
24280;BME280;12395;42.808;23.408;2022-09-20T17:32:13;94964.44;;;9.78;72.50
24280;BME280;12395;42.808;23.408;2022-09-20T17:34:39;94964.44;;;9.71;73.33
24280;BME280;12395;42.808;23.408;2022-09-20T17:37:04;94950.53;;;9.50;74.05
24280;BME280;12395;42.808;23.408;2022-09-20T17:39:30;94968.66;;;9.53;74.01
24280;BME280;12395;42.808;23.408;2022-09-20T17:41:55;94973.09;;;9.39;75.56
24280;BME280;12395;42.808;23.408;2022-09-20T17:44:21;94979.34;;;9.25;76.41
24280;BME280;12395;42.808;23.408;2022-09-20T17:46:48;94970.75;;;9.10;77.22
24280;BME280;12395;42.808;23.408;2022-09-20T17:49:19;94985.13;;;9.01;78.07
24280;BME280;12395;42.808;23.408;2022-09-20T17:51:49;94980.44;;;9.03;77.94
24280;BME280;12395;42.808;23.408;2022-09-20T17:54:15;94976.53;;;8.92;78.32
24280;BME280;12395;42.808;23.408;2022-09-20T17:56:46;94990.78;;;8.91;79.21
24280;BME280;12395;42.808;23.408;2022-09-20T17:59:12;94991.09;;;8.82;79.90
24280;BME280;12395;42.808;23.408;2022-09-20T18:01:42;94998.81;;;8.77;80.09
24280;BME280;12395;42.808;23.408;2022-09-20T18:04:08;94996.94;;;8.71;79.90
24280;BME280;12395;42.808;23.408;2022-09-20T18:06:39;94997.50;;;8.66;80.51
24280;BME280;12395;42.808;23.408;2022-09-20T18:09:10;95000.38;;;8.71;80.85
24280;BME280;12395;42.808;23.408;2022-09-20T18:11:38;95002.00;;;8.66;81.07
24280;BME280;12395;42.808;23.408;2022-09-20T18:14:07;95005.22;;;8.61;81.34
24280;BME280;12395;42.808;23.408;2022-09-20T18:16:34;95002.66;;;8.46;81.68
24280;BME280;12395;42.808;23.408;2022-09-20T18:19:02;95007.03;;;8.33;81.65
24280;BME280;12395;42.808;23.408;2022-09-20T18:21:29;95011.09;;;8.35;82.61
24280;BME280;12395;42.808;23.408;2022-09-20T18:23:55;94990.97;;;8.13;82.73
24280;BME280;12395;42.808;23.408;2022-09-20T18:26:26;94992.72;;;8.00;83.94
24280;BME280;12395;42.808;23.408;2022-09-20T18:29:12;95012.59;;;8.02;84.89
24280;BME280;12395;42.808;23.408;2022-09-20T18:31:51;95019.31;;;8.05;85.16